sensor_id;sensor_type;location;lat;lon;timestamp;temperature;humidity
20479;DHT22;10398;52.490;13.434;2022-12-11T00:01:32;3.00;99.90
20479;DHT22;10398;52.490;13.434;2022-12-11T00:03:58;2.90;99.90
20479;DHT22;10398;52.490;13.434;2022-12-11T00:06:24;3.00;99.90
20479;DHT22;10398;52.490;13.434;2022-12-11T00:08:53;2.90;99.90
20479;DHT22;10398;52.490;13.434;2022-12-11T00:11:19;2.90;99.90
20479;DHT22;10398;52.490;13.434;2022-12-11T00:13:46;2.80;99.90
20479;DHT22;10398;52.490;13.434;2022-12-11T00:16:11;2.90;99.90
20479;DHT22;10398;52.490;13.434;2022-12-11T00:18:37;2.80;99.90
20479;DHT22;10398;52.490;13.434;2022-12-11T00:21:04;2.70;99.90
20479;DHT22;10398;52.490;13.434;2022-12-11T00:23:31;2.70;99.90
20479;DHT22;10398;52.490;13.434;2022-12-11T00:25:56;2.70;99.90
20479;DHT22;10398;52.490;13.434;2022-12-11T00:28:22;2.80;99.90
20479;DHT22;10398;52.490;13.434;2022-12-11T00:30:48;2.80;99.90
20479;DHT22;10398;52.490;13.434;2022-12-11T00:33:14;2.80;99.90
20479;DHT22;10398;52.490;13.434;2022-12-11T00:35:45;2.80;99.90
20479;DHT22;10398;52.490;13.434;2022-12-11T00:38:16;2.90;99.90
20479;DHT22;10398;52.490;13.434;2022-12-11T00:40:42;3.00;99.90
20479;DHT22;10398;52.490;13.434;2022-12-11T00:43:08;2.90;99.90
20479;DHT22;10398;52.490;13.434;2022-12-11T00:45:39;2.90;99.90
20479;DHT22;10398;52.490;13.434;2022-12-11T00:48:05;3.00;99.90
20479;DHT22;10398;52.490;13.434;2022-12-11T00:50:31;3.00;99.90
20479;DHT22;10398;52.490;13.434;2022-12-11T00:52:57;3.10;99.90
20479;DHT22;10398;52.490;13.434;2022-12-11T00:55:22;3.10;99.90
20479;DHT22;10398;52.490;13.434;2022-12-11T00:57:50;3.10;99.90
20479;DHT22;10398;52.490;13.434;2022-12-11T01:00:16;3.20;99.90
20479;DHT22;10398;52.490;13.434;2022-12-11T01:02:42;3.20;99.90
20479;DHT22;10398;52.490;13.434;2022-12-11T01:05:09;3.20;99.90
20479;DHT22;10398;52.490;13.434;2022-12-11T01:07:35;3.20;99.90
20479;DHT22;10398;52.490;13.434;2022-12-11T01:10:00;3.20;99.90
20479;DHT22;10398;52.490;13.434;2022-12-11T01:12:44;3.20;99.90
20479;DHT22;10398;52.490;13.434;2022-12-11T01:15:10;3.20;99.90
20479;DHT22;10398;52.490;13.434;2022-12-11T01:17:36;3.20;99.90
20479;DHT22;10398;52.490;13.434;2022-12-11T01:20:03;3.30;99.90
20479;DHT22;10398;52.490;13.434;2022-12-11T01:22:30;3.20;99.90
20479;DHT22;10398;52.490;13.434;2022-12-11T01:24:55;3.20;99.90
20479;DHT22;10398;52.490;13.434;2022-12-11T01:27:21;3.10;99.90
20479;DHT22;10398;52.490;13.434;2022-12-11T01:29:47;3.10;99.90
20479;DHT22;10398;52.490;13.434;2022-12-11T01:32:14;3.10;99.90
20479;DHT22;10398;52.490;13.434;2022-12-11T01:34:39;3.10;99.90
20479;DHT22;10398;52.490;13.434;2022-12-11T01:37:05;3.10;99.90
20479;DHT22;10398;52.490;13.434;2022-12-11T01:39:31;3.10;99.90
20479;DHT22;10398;52.490;13.434;2022-12-11T01:41:57;3.10;99.90
20479;DHT22;10398;52.490;13.434;2022-12-11T01:46:49;3.20;99.90
20479;DHT22;10398;52.490;13.434;2022-12-11T01:49:16;3.20;99.90
20479;DHT22;10398;52.490;13.434;2022-12-11T01:51:50;3.20;99.90
20479;DHT22;10398;52.490;13.434;2022-12-11T01:54:18;3.20;99.90
20479;DHT22;10398;52.490;13.434;2022-12-11T01:56:46;3.20;99.90
20479;DHT22;10398;52.490;13.434;2022-12-11T01:59:14;3.20;99.90
20479;DHT22;10398;52.490;13.434;2022-12-11T02:04:31;3.10;99.90
20479;DHT22;10398;52.490;13.434;2022-12-11T02:06:57;3.10;99.90
20479;DHT22;10398;52.490;13.434;2022-12-11T02:09:27;3.10;99.90
20479;DHT22;10398;52.490;13.434;2022-12-11T02:12:06;3.10;99.90
20479;DHT22;10398;52.490;13.434;2022-12-11T02:28:58;3.10;99.90
20479;DHT22;10398;52.490;13.434;2022-12-11T02:31:50;3.20;99.90
20479;DHT22;10398;52.490;13.434;2022-12-11T02:34:38;3.10;99.90
20479;DHT22;10398;52.490;13.434;2022-12-11T02:37:08;3.20;99.90
20479;DHT22;10398;52.490;13.434;2022-12-11T02:39:36;3.20;99.90
20479;DHT22;10398;52.490;13.434;2022-12-11T02:42:03;3.20;99.90
20479;DHT22;10398;52.490;13.434;2022-12-11T02:44:31;3.20;99.90
20479;DHT22;10398;52.490;13.434;2022-12-11T02:47:00;3.20;99.90
20479;DHT22;10398;52.490;13.434;2022-12-11T02:49:27;3.10;99.90
20479;DHT22;10398;52.490;13.434;2022-12-11T02:51:55;3.10;99.90
20479;DHT22;10398;52.490;13.434;2022-12-11T02:54:26;3.10;99.90
20479;DHT22;10398;52.490;13.434;2022-12-11T02:57:02;3.00;99.90
20479;DHT22;10398;52.490;13.434;2022-12-11T02:59:36;3.00;99.90
20479;DHT22;10398;52.490;13.434;2022-12-11T03:02:03;3.00;99.90
20479;DHT22;10398;52.490;13.434;2022-12-11T03:04:29;3.00;99.90
20479;DHT22;10398;52.490;13.434;2022-12-11T03:06:58;3.00;99.90
20479;DHT22;10398;52.490;13.434;2022-12-11T03:09:26;3.10;99.90
20479;DHT22;10398;52.490;13.434;2022-12-11T03:11:52;3.10;99.90
20479;DHT22;10398;52.490;13.434;2022-12-11T03:14:18;3.10;99.90
20479;DHT22;10398;52.490;13.434;2022-12-11T03:22:38;3.10;99.90
20479;DHT22;10398;52.490;13.434;2022-12-11T03:25:16;3.10;99.90
20479;DHT22;10398;52.490;13.434;2022-12-11T03:27:49;3.20;99.90
20479;DHT22;10398;52.490;13.434;2022-12-11T03:30:19;3.20;99.90
20479;DHT22;10398;52.490;13.434;2022-12-11T03:35:38;3.10;99.90
20479;DHT22;10398;52.490;13.434;2022-12-11T03:38:10;3.00;99.90
20479;DHT22;10398;52.490;13.434;2022-12-11T03:40:37;3.00;99.90
20479;DHT22;10398;52.490;13.434;2022-12-11T03:43:05;3.20;99.90
20479;DHT22;10398;52.490;13.434;2022-12-11T03:45:32;3.20;99.90
20479;DHT22;10398;52.490;13.434;2022-12-11T03:47:59;3.20;99.90
20479;DHT22;10398;52.490;13.434;2022-12-11T03:50:28;3.20;99.90
20479;DHT22;10398;52.490;13.434;2022-12-11T03:52:55;3.10;99.90
20479;DHT22;10398;52.490;13.434;2022-12-11T03:55:22;3.10;99.90
20479;DHT22;10398;52.490;13.434;2022-12-11T03:57:49;3.10;99.90
20479;DHT22;10398;52.490;13.434;2022-12-11T04:00:17;3.00;99.90
20479;DHT22;10398;52.490;13.434;2022-12-11T04:02:44;3.10;99.90
20479;DHT22;10398;52.490;13.434;2022-12-11T04:05:30;3.10;99.90
20479;DHT22;10398;52.490;13.434;2022-12-11T04:07:55;3.10;99.90
20479;DHT22;10398;52.490;13.434;2022-12-11T04:10:21;3.10;99.90
20479;DHT22;10398;52.490;13.434;2022-12-11T04:12:46;3.20;99.90
20479;DHT22;10398;52.490;13.434;2022-12-11T04:15:12;3.20;99.90
20479;DHT22;10398;52.490;13.434;2022-12-11T04:17:38;3.20;99.90
20479;DHT22;10398;52.490;13.434;2022-12-11T04:20:22;3.10;99.90
20479;DHT22;10398;52.490;13.434;2022-12-11T04:23:11;3.00;99.90
20479;DHT22;10398;52.490;13.434;2022-12-11T04:26:10;3.00;99.90
20479;DHT22;10398;52.490;13.434;2022-12-11T04:28:36;2.90;99.90
20479;DHT22;10398;52.490;13.434;2022-12-11T04:31:02;2.90;99.90
20479;DHT22;10398;52.490;13.434;2022-12-11T04:33:28;2.80;99.90
20479;DHT22;10398;52.490;13.434;2022-12-11T04:35:57;2.80;99.90
20479;DHT22;10398;52.490;13.434;2022-12-11T04:38:23;2.70;99.90
20479;DHT22;10398;52.490;13.434;2022-12-11T04:40:48;2.70;99.90
20479;DHT22;10398;52.490;13.434;2022-12-11T04:43:14;2.60;99.90
20479;DHT22;10398;52.490;13.434;2022-12-11T04:45:40;2.60;99.90
20479;DHT22;10398;52.490;13.434;2022-12-11T04:48:05;2.50;99.90
20479;DHT22;10398;52.490;13.434;2022-12-11T04:50:31;2.50;99.90
20479;DHT22;10398;52.490;13.434;2022-12-11T04:52:57;2.50;99.90
20479;DHT22;10398;52.490;13.434;2022-12-11T04:55:23;2.50;99.90
20479;DHT22;10398;52.490;13.434;2022-12-11T04:57:48;2.50;99.90
20479;DHT22;10398;52.490;13.434;2022-12-11T05:00:15;2.60;99.90
20479;DHT22;10398;52.490;13.434;2022-12-11T05:02:41;2.60;99.90
20479;DHT22;10398;52.490;13.434;2022-12-11T05:05:09;2.60;99.90
20479;DHT22;10398;52.490;13.434;2022-12-11T05:07:35;2.50;99.90
20479;DHT22;10398;52.490;13.434;2022-12-11T05:10:01;2.60;99.90
20479;DHT22;10398;52.490;13.434;2022-12-11T05:12:27;2.70;99.90
20479;DHT22;10398;52.490;13.434;2022-12-11T05:14:53;2.70;99.90
20479;DHT22;10398;52.490;13.434;2022-12-11T05:17:20;2.80;99.90
20479;DHT22;10398;52.490;13.434;2022-12-11T05:19:47;2.80;99.90
20479;DHT22;10398;52.490;13.434;2022-12-11T05:22:13;2.80;99.90
20479;DHT22;10398;52.490;13.434;2022-12-11T05:24:39;2.90;99.90
20479;DHT22;10398;52.490;13.434;2022-12-11T05:27:05;2.90;99.90
20479;DHT22;10398;52.490;13.434;2022-12-11T05:29:30;2.80;99.90
20479;DHT22;10398;52.490;13.434;2022-12-11T05:31:56;2.80;99.90
20479;DHT22;10398;52.490;13.434;2022-12-11T05:34:22;2.80;99.90
20479;DHT22;10398;52.490;13.434;2022-12-11T05:36:47;2.90;99.90
20479;DHT22;10398;52.490;13.434;2022-12-11T05:39:13;2.80;99.90
20479;DHT22;10398;52.490;13.434;2022-12-11T05:41:39;2.90;99.90
20479;DHT22;10398;52.490;13.434;2022-12-11T05:44:04;2.90;99.90
20479;DHT22;10398;52.490;13.434;2022-12-11T05:46:30;2.80;99.90
20479;DHT22;10398;52.490;13.434;2022-12-11T05:48:58;2.80;99.90
20479;DHT22;10398;52.490;13.434;2022-12-11T05:51:24;2.80;99.90
20479;DHT22;10398;52.490;13.434;2022-12-11T05:53:52;2.90;99.90
20479;DHT22;10398;52.490;13.434;2022-12-11T05:56:23;2.90;99.90
20479;DHT22;10398;52.490;13.434;2022-12-11T05:58:49;2.90;99.90
20479;DHT22;10398;52.490;13.434;2022-12-11T06:01:20;2.80;99.90
20479;DHT22;10398;52.490;13.434;2022-12-11T06:03:46;2.90;99.90
20479;DHT22;10398;52.490;13.434;2022-12-11T06:06:12;2.90;99.90
20479;DHT22;10398;52.490;13.434;2022-12-11T06:08:38;3.00;99.90
20479;DHT22;10398;52.490;13.434;2022-12-11T06:11:04;3.00;99.90
20479;DHT22;10398;52.490;13.434;2022-12-11T06:13:30;3.00;99.90
20479;DHT22;10398;52.490;13.434;2022-12-11T06:16:00;3.00;99.90
20479;DHT22;10398;52.490;13.434;2022-12-11T06:18:27;2.90;99.90
20479;DHT22;10398;52.490;13.434;2022-12-11T06:20:52;2.80;99.90
20479;DHT22;10398;52.490;13.434;2022-12-11T06:23:18;2.70;99.90
20479;DHT22;10398;52.490;13.434;2022-12-11T06:25:44;2.80;99.90
20479;DHT22;10398;52.490;13.434;2022-12-11T06:28:10;2.80;99.90
20479;DHT22;10398;52.490;13.434;2022-12-11T06:30:36;2.80;99.90
20479;DHT22;10398;52.490;13.434;2022-12-11T06:33:01;2.80;99.90
20479;DHT22;10398;52.490;13.434;2022-12-11T06:35:27;2.80;99.90
20479;DHT22;10398;52.490;13.434;2022-12-11T06:37:53;2.80;99.90
20479;DHT22;10398;52.490;13.434;2022-12-11T06:40:18;2.90;99.90
20479;DHT22;10398;52.490;13.434;2022-12-11T06:42:44;2.90;99.90
20479;DHT22;10398;52.490;13.434;2022-12-11T06:45:10;2.80;99.90
20479;DHT22;10398;52.490;13.434;2022-12-11T06:47:36;2.90;99.90
20479;DHT22;10398;52.490;13.434;2022-12-11T06:50:02;2.80;99.90
20479;DHT22;10398;52.490;13.434;2022-12-11T06:52:28;2.80;99.90
20479;DHT22;10398;52.490;13.434;2022-12-11T06:54:53;2.70;99.90
20479;DHT22;10398;52.490;13.434;2022-12-11T06:57:19;2.80;99.90
20479;DHT22;10398;52.490;13.434;2022-12-11T06:59:45;2.70;99.90
20479;DHT22;10398;52.490;13.434;2022-12-11T07:02:12;2.60;99.90
20479;DHT22;10398;52.490;13.434;2022-12-11T07:04:38;2.70;99.90
20479;DHT22;10398;52.490;13.434;2022-12-11T07:07:04;2.70;99.90
20479;DHT22;10398;52.490;13.434;2022-12-11T07:09:30;2.70;99.90
20479;DHT22;10398;52.490;13.434;2022-12-11T07:11:55;2.70;99.90
20479;DHT22;10398;52.490;13.434;2022-12-11T07:14:21;2.70;99.90
20479;DHT22;10398;52.490;13.434;2022-12-11T07:16:47;2.70;99.90
20479;DHT22;10398;52.490;13.434;2022-12-11T07:19:12;2.70;99.90
20479;DHT22;10398;52.490;13.434;2022-12-11T07:21:38;2.70;99.90
20479;DHT22;10398;52.490;13.434;2022-12-11T07:24:04;2.70;99.90
20479;DHT22;10398;52.490;13.434;2022-12-11T07:26:30;2.70;99.90
20479;DHT22;10398;52.490;13.434;2022-12-11T07:28:56;2.70;99.90
20479;DHT22;10398;52.490;13.434;2022-12-11T07:31:24;2.60;99.90
20479;DHT22;10398;52.490;13.434;2022-12-11T07:36:20;2.50;99.90
20479;DHT22;10398;52.490;13.434;2022-12-11T07:38:45;2.60;99.90
20479;DHT22;10398;52.490;13.434;2022-12-11T07:41:13;2.60;99.90
20479;DHT22;10398;52.490;13.434;2022-12-11T07:43:39;2.50;99.90
20479;DHT22;10398;52.490;13.434;2022-12-11T07:46:09;2.50;99.90
20479;DHT22;10398;52.490;13.434;2022-12-11T07:48:37;2.60;99.90
20479;DHT22;10398;52.490;13.434;2022-12-11T07:51:15;2.60;99.90
20479;DHT22;10398;52.490;13.434;2022-12-11T07:53:45;2.50;99.90
20479;DHT22;10398;52.490;13.434;2022-12-11T07:56:11;2.60;99.90
20479;DHT22;10398;52.490;13.434;2022-12-11T07:58:38;2.60;99.90
20479;DHT22;10398;52.490;13.434;2022-12-11T08:01:18;2.60;99.90
20479;DHT22;10398;52.490;13.434;2022-12-11T08:03:44;2.60;99.90
20479;DHT22;10398;52.490;13.434;2022-12-11T08:06:10;2.50;99.90
20479;DHT22;10398;52.490;13.434;2022-12-11T08:08:36;2.60;99.90
20479;DHT22;10398;52.490;13.434;2022-12-11T08:11:07;2.50;99.90
20479;DHT22;10398;52.490;13.434;2022-12-11T08:13:33;2.40;99.90
20479;DHT22;10398;52.490;13.434;2022-12-11T08:16:03;2.40;99.90
20479;DHT22;10398;52.490;13.434;2022-12-11T08:18:28;2.40;99.90
20479;DHT22;10398;52.490;13.434;2022-12-11T08:20:54;2.40;99.90
20479;DHT22;10398;52.490;13.434;2022-12-11T08:23:20;2.50;99.90
20479;DHT22;10398;52.490;13.434;2022-12-11T08:25:46;2.60;99.90
20479;DHT22;10398;52.490;13.434;2022-12-11T08:28:11;2.60;99.90
20479;DHT22;10398;52.490;13.434;2022-12-11T08:30:40;2.50;99.90
20479;DHT22;10398;52.490;13.434;2022-12-11T08:33:06;2.40;99.90
20479;DHT22;10398;52.490;13.434;2022-12-11T08:35:31;2.40;99.90
20479;DHT22;10398;52.490;13.434;2022-12-11T08:37:57;2.50;99.90
20479;DHT22;10398;52.490;13.434;2022-12-11T08:40:23;2.40;99.90
20479;DHT22;10398;52.490;13.434;2022-12-11T08:42:48;2.50;99.90
20479;DHT22;10398;52.490;13.434;2022-12-11T08:45:14;2.50;99.90
20479;DHT22;10398;52.490;13.434;2022-12-11T08:47:40;2.50;99.90
20479;DHT22;10398;52.490;13.434;2022-12-11T08:50:06;2.50;99.90
20479;DHT22;10398;52.490;13.434;2022-12-11T08:52:33;2.50;99.90
20479;DHT22;10398;52.490;13.434;2022-12-11T08:54:59;2.50;99.90
20479;DHT22;10398;52.490;13.434;2022-12-11T08:57:26;2.60;99.90
20479;DHT22;10398;52.490;13.434;2022-12-11T08:59:52;2.60;99.90
20479;DHT22;10398;52.490;13.434;2022-12-11T09:02:18;2.60;99.90
20479;DHT22;10398;52.490;13.434;2022-12-11T09:04:43;2.70;99.90
20479;DHT22;10398;52.490;13.434;2022-12-11T09:07:09;2.70;99.90
20479;DHT22;10398;52.490;13.434;2022-12-11T09:09:35;2.60;99.90
20479;DHT22;10398;52.490;13.434;2022-12-11T09:12:01;2.70;99.90
20479;DHT22;10398;52.490;13.434;2022-12-11T09:14:29;2.70;99.90
20479;DHT22;10398;52.490;13.434;2022-12-11T09:16:54;2.70;99.90
20479;DHT22;10398;52.490;13.434;2022-12-11T09:19:20;2.80;99.90
20479;DHT22;10398;52.490;13.434;2022-12-11T09:21:45;2.80;99.90
20479;DHT22;10398;52.490;13.434;2022-12-11T09:24:12;2.90;99.90
20479;DHT22;10398;52.490;13.434;2022-12-11T09:26:38;2.80;99.90
20479;DHT22;10398;52.490;13.434;2022-12-11T09:29:04;2.80;99.90
20479;DHT22;10398;52.490;13.434;2022-12-11T09:31:33;2.80;99.90
20479;DHT22;10398;52.490;13.434;2022-12-11T09:34:05;2.70;99.90
20479;DHT22;10398;52.490;13.434;2022-12-11T09:36:31;2.70;99.90
20479;DHT22;10398;52.490;13.434;2022-12-11T09:39:01;2.70;99.90
20479;DHT22;10398;52.490;13.434;2022-12-11T09:41:51;2.70;99.90
20479;DHT22;10398;52.490;13.434;2022-12-11T09:47:40;2.70;99.90
20479;DHT22;10398;52.490;13.434;2022-12-11T09:55:45;2.60;99.90
20479;DHT22;10398;52.490;13.434;2022-12-11T09:58:36;2.60;99.90
20479;DHT22;10398;52.490;13.434;2022-12-11T10:01:09;2.60;99.90
20479;DHT22;10398;52.490;13.434;2022-12-11T10:06:29;2.60;99.90
20479;DHT22;10398;52.490;13.434;2022-12-11T10:11:36;2.60;99.90
20479;DHT22;10398;52.490;13.434;2022-12-11T10:14:35;2.70;99.90
20479;DHT22;10398;52.490;13.434;2022-12-11T10:17:24;2.70;99.90
20479;DHT22;10398;52.490;13.434;2022-12-11T10:19:52;2.80;99.90
20479;DHT22;10398;52.490;13.434;2022-12-11T10:22:25;2.80;99.90
20479;DHT22;10398;52.490;13.434;2022-12-11T10:24:58;2.70;99.90
20479;DHT22;10398;52.490;13.434;2022-12-11T10:27:29;2.80;99.90
20479;DHT22;10398;52.490;13.434;2022-12-11T10:40:46;2.50;99.90
20479;DHT22;10398;52.490;13.434;2022-12-11T10:43:12;2.40;99.90
20479;DHT22;10398;52.490;13.434;2022-12-11T10:45:37;2.40;99.90
20479;DHT22;10398;52.490;13.434;2022-12-11T10:48:08;2.50;99.90
20479;DHT22;10398;52.490;13.434;2022-12-11T10:50:35;2.60;99.90
20479;DHT22;10398;52.490;13.434;2022-12-11T10:53:00;2.60;99.90
20479;DHT22;10398;52.490;13.434;2022-12-11T10:55:27;2.60;99.90
20479;DHT22;10398;52.490;13.434;2022-12-11T10:57:59;2.70;99.90
20479;DHT22;10398;52.490;13.434;2022-12-11T11:00:35;2.80;99.90
20479;DHT22;10398;52.490;13.434;2022-12-11T11:03:04;2.70;99.90
20479;DHT22;10398;52.490;13.434;2022-12-11T11:05:35;2.70;99.90
20479;DHT22;10398;52.490;13.434;2022-12-11T11:08:14;2.80;99.90
20479;DHT22;10398;52.490;13.434;2022-12-11T11:10:55;2.80;99.90
20479;DHT22;10398;52.490;13.434;2022-12-11T11:13:22;2.80;99.90
20479;DHT22;10398;52.490;13.434;2022-12-11T11:15:56;2.90;99.90
20479;DHT22;10398;52.490;13.434;2022-12-11T11:18:25;2.90;99.90
20479;DHT22;10398;52.490;13.434;2022-12-11T11:20:52;2.90;99.90
20479;DHT22;10398;52.490;13.434;2022-12-11T11:23:19;2.90;99.90
20479;DHT22;10398;52.490;13.434;2022-12-11T11:25:54;3.00;99.90
20479;DHT22;10398;52.490;13.434;2022-12-11T11:28:50;2.90;99.90
20479;DHT22;10398;52.490;13.434;2022-12-11T11:31:18;2.90;99.90
20479;DHT22;10398;52.490;13.434;2022-12-11T11:34:04;3.00;99.90
20479;DHT22;10398;52.490;13.434;2022-12-11T11:36:32;3.00;99.90
20479;DHT22;10398;52.490;13.434;2022-12-11T11:41:39;3.00;99.90
20479;DHT22;10398;52.490;13.434;2022-12-11T11:44:12;3.00;99.90
20479;DHT22;10398;52.490;13.434;2022-12-11T11:49:19;3.10;99.90
20479;DHT22;10398;52.490;13.434;2022-12-11T11:57:14;3.10;99.90
20479;DHT22;10398;52.490;13.434;2022-12-11T11:59:48;3.10;99.90
20479;DHT22;10398;52.490;13.434;2022-12-11T12:02:17;3.00;99.90
20479;DHT22;10398;52.490;13.434;2022-12-11T12:04:44;3.00;99.90
20479;DHT22;10398;52.490;13.434;2022-12-11T12:07:32;3.10;99.90
20479;DHT22;10398;52.490;13.434;2022-12-11T12:12:52;3.00;99.90
20479;DHT22;10398;52.490;13.434;2022-12-11T12:18:10;3.00;99.90
20479;DHT22;10398;52.490;13.434;2022-12-11T12:23:57;3.00;99.90
20479;DHT22;10398;52.490;13.434;2022-12-11T12:26:40;3.00;99.90
20479;DHT22;10398;52.490;13.434;2022-12-11T12:29:33;3.10;99.90
20479;DHT22;10398;52.490;13.434;2022-12-11T12:32:30;3.10;99.90
20479;DHT22;10398;52.490;13.434;2022-12-11T12:37:54;3.10;99.90
20479;DHT22;10398;52.490;13.434;2022-12-11T12:43:30;3.20;99.90
20479;DHT22;10398;52.490;13.434;2022-12-11T12:48:44;3.00;99.90
20479;DHT22;10398;52.490;13.434;2022-12-11T12:51:14;2.90;99.90
20479;DHT22;10398;52.490;13.434;2022-12-11T12:53:45;2.90;99.90
20479;DHT22;10398;52.490;13.434;2022-12-11T12:56:11;2.90;99.90
20479;DHT22;10398;52.490;13.434;2022-12-11T12:58:42;2.90;99.90
20479;DHT22;10398;52.490;13.434;2022-12-11T13:01:23;2.90;99.90
20479;DHT22;10398;52.490;13.434;2022-12-11T13:03:57;2.90;99.90
20479;DHT22;10398;52.490;13.434;2022-12-11T13:09:16;3.10;99.90
20479;DHT22;10398;52.490;13.434;2022-12-11T13:11:44;3.20;99.90
20479;DHT22;10398;52.490;13.434;2022-12-11T13:16:41;3.50;99.90
20479;DHT22;10398;52.490;13.434;2022-12-11T13:19:25;3.50;99.90
20479;DHT22;10398;52.490;13.434;2022-12-11T13:24:58;3.50;99.90
20479;DHT22;10398;52.490;13.434;2022-12-11T13:27:46;3.50;99.90
20479;DHT22;10398;52.490;13.434;2022-12-11T13:32:48;3.40;99.90
20479;DHT22;10398;52.490;13.434;2022-12-11T13:35:18;3.40;99.90
20479;DHT22;10398;52.490;13.434;2022-12-11T13:37:45;3.40;99.90
20479;DHT22;10398;52.490;13.434;2022-12-11T13:40:17;3.30;99.90
20479;DHT22;10398;52.490;13.434;2022-12-11T13:42:50;3.30;99.90
20479;DHT22;10398;52.490;13.434;2022-12-11T13:45:21;3.30;99.90
20479;DHT22;10398;52.490;13.434;2022-12-11T13:47:48;3.40;99.90
20479;DHT22;10398;52.490;13.434;2022-12-11T13:50:27;3.40;99.90
20479;DHT22;10398;52.490;13.434;2022-12-11T13:53:00;3.40;99.90
20479;DHT22;10398;52.490;13.434;2022-12-11T13:55:29;3.40;99.90
20479;DHT22;10398;52.490;13.434;2022-12-11T13:57:56;3.40;99.90
20479;DHT22;10398;52.490;13.434;2022-12-11T14:00:24;3.40;99.90
20479;DHT22;10398;52.490;13.434;2022-12-11T14:02:52;3.40;99.90
20479;DHT22;10398;52.490;13.434;2022-12-11T14:05:19;3.30;99.90
20479;DHT22;10398;52.490;13.434;2022-12-11T14:07:50;3.30;99.90
20479;DHT22;10398;52.490;13.434;2022-12-11T14:10:21;3.30;99.90
20479;DHT22;10398;52.490;13.434;2022-12-11T14:12:59;3.30;99.90
20479;DHT22;10398;52.490;13.434;2022-12-11T14:15:27;3.30;99.90
20479;DHT22;10398;52.490;13.434;2022-12-11T14:17:54;3.20;99.90
20479;DHT22;10398;52.490;13.434;2022-12-11T14:20:24;3.20;99.90
20479;DHT22;10398;52.490;13.434;2022-12-11T14:22:50;3.20;99.90
20479;DHT22;10398;52.490;13.434;2022-12-11T14:25:25;3.20;99.90
20479;DHT22;10398;52.490;13.434;2022-12-11T14:27:54;3.20;99.90
20479;DHT22;10398;52.490;13.434;2022-12-11T14:30:30;3.20;99.90
20479;DHT22;10398;52.490;13.434;2022-12-11T14:32:59;3.10;99.90
20479;DHT22;10398;52.490;13.434;2022-12-11T14:35:31;3.10;99.90
20479;DHT22;10398;52.490;13.434;2022-12-11T14:37:59;3.10;99.90
20479;DHT22;10398;52.490;13.434;2022-12-11T14:40:30;3.10;99.90
20479;DHT22;10398;52.490;13.434;2022-12-11T14:43:06;3.10;99.90
20479;DHT22;10398;52.490;13.434;2022-12-11T14:45:35;3.10;99.90
20479;DHT22;10398;52.490;13.434;2022-12-11T14:48:06;3.00;99.90
20479;DHT22;10398;52.490;13.434;2022-12-11T14:50:40;3.00;99.90
20479;DHT22;10398;52.490;13.434;2022-12-11T14:53:19;3.00;99.90
20479;DHT22;10398;52.490;13.434;2022-12-11T14:55:47;3.00;99.90
20479;DHT22;10398;52.490;13.434;2022-12-11T14:58:22;3.00;99.90
20479;DHT22;10398;52.490;13.434;2022-12-11T15:01:05;3.10;99.90
20479;DHT22;10398;52.490;13.434;2022-12-11T15:03:40;3.10;99.90
20479;DHT22;10398;52.490;13.434;2022-12-11T15:06:33;3.10;99.90
20479;DHT22;10398;52.490;13.434;2022-12-11T15:12:06;3.10;99.90
20479;DHT22;10398;52.490;13.434;2022-12-11T15:14:32;3.10;99.90
20479;DHT22;10398;52.490;13.434;2022-12-11T15:16:58;3.20;99.90
20479;DHT22;10398;52.490;13.434;2022-12-11T15:19:26;3.10;99.90
20479;DHT22;10398;52.490;13.434;2022-12-11T15:21:53;3.10;99.90
20479;DHT22;10398;52.490;13.434;2022-12-11T15:24:40;3.20;99.90
20479;DHT22;10398;52.490;13.434;2022-12-11T15:29:55;3.20;99.90
20479;DHT22;10398;52.490;13.434;2022-12-11T15:32:21;3.20;99.90
20479;DHT22;10398;52.490;13.434;2022-12-11T15:37:21;3.20;99.90
20479;DHT22;10398;52.490;13.434;2022-12-11T15:39:47;3.20;99.90
20479;DHT22;10398;52.490;13.434;2022-12-11T15:42:15;3.20;99.90
20479;DHT22;10398;52.490;13.434;2022-12-11T15:44:43;3.20;99.90
20479;DHT22;10398;52.490;13.434;2022-12-11T15:47:19;3.30;99.90
20479;DHT22;10398;52.490;13.434;2022-12-11T15:49:45;3.30;99.90
20479;DHT22;10398;52.490;13.434;2022-12-11T15:52:11;3.40;99.90
20479;DHT22;10398;52.490;13.434;2022-12-11T15:54:37;3.40;99.90
20479;DHT22;10398;52.490;13.434;2022-12-11T15:57:05;3.30;99.90
20479;DHT22;10398;52.490;13.434;2022-12-11T15:59:32;3.30;99.90
20479;DHT22;10398;52.490;13.434;2022-12-11T16:01:58;3.30;99.90
20479;DHT22;10398;52.490;13.434;2022-12-11T16:04:24;3.30;99.90
20479;DHT22;10398;52.490;13.434;2022-12-11T16:06:50;3.30;99.90
20479;DHT22;10398;52.490;13.434;2022-12-11T16:09:15;3.20;99.90
20479;DHT22;10398;52.490;13.434;2022-12-11T16:11:41;3.20;99.90
20479;DHT22;10398;52.490;13.434;2022-12-11T16:14:07;3.30;99.90
20479;DHT22;10398;52.490;13.434;2022-12-11T16:16:32;3.20;99.90
20479;DHT22;10398;52.490;13.434;2022-12-11T16:18:58;3.20;99.90
20479;DHT22;10398;52.490;13.434;2022-12-11T16:21:25;3.20;99.90
20479;DHT22;10398;52.490;13.434;2022-12-11T16:23:50;3.20;99.90
20479;DHT22;10398;52.490;13.434;2022-12-11T16:26:16;3.20;99.90
20479;DHT22;10398;52.490;13.434;2022-12-11T16:28:42;3.20;99.90
20479;DHT22;10398;52.490;13.434;2022-12-11T16:31:12;3.30;99.90
20479;DHT22;10398;52.490;13.434;2022-12-11T16:33:38;3.30;99.90
20479;DHT22;10398;52.490;13.434;2022-12-11T16:36:18;3.30;99.90
20479;DHT22;10398;52.490;13.434;2022-12-11T16:38:48;3.30;99.90
20479;DHT22;10398;52.490;13.434;2022-12-11T16:41:14;3.30;99.90
20479;DHT22;10398;52.490;13.434;2022-12-11T16:43:40;3.30;99.90
20479;DHT22;10398;52.490;13.434;2022-12-11T16:46:06;3.30;99.90
20479;DHT22;10398;52.490;13.434;2022-12-11T16:48:31;3.30;99.90
20479;DHT22;10398;52.490;13.434;2022-12-11T16:50:57;3.20;99.90
20479;DHT22;10398;52.490;13.434;2022-12-11T16:53:24;3.20;99.90
20479;DHT22;10398;52.490;13.434;2022-12-11T16:55:50;3.20;99.90
20479;DHT22;10398;52.490;13.434;2022-12-11T16:58:15;3.20;99.90
20479;DHT22;10398;52.490;13.434;2022-12-11T17:00:48;3.20;99.90
20479;DHT22;10398;52.490;13.434;2022-12-11T17:03:14;3.20;99.90
20479;DHT22;10398;52.490;13.434;2022-12-11T17:05:43;3.20;99.90
20479;DHT22;10398;52.490;13.434;2022-12-11T17:08:09;3.20;99.90
20479;DHT22;10398;52.490;13.434;2022-12-11T17:10:39;3.20;99.90
20479;DHT22;10398;52.490;13.434;2022-12-11T17:13:06;3.20;99.90
20479;DHT22;10398;52.490;13.434;2022-12-11T17:15:31;3.10;99.90
20479;DHT22;10398;52.490;13.434;2022-12-11T17:18:00;3.00;99.90
20479;DHT22;10398;52.490;13.434;2022-12-11T17:20:29;3.10;99.90
20479;DHT22;10398;52.490;13.434;2022-12-11T17:22:55;3.20;99.90
20479;DHT22;10398;52.490;13.434;2022-12-11T17:25:20;3.20;99.90